Time;durP1;ratioP1;P1;durP2;ratioP2;P2;SDS_P1;SDS_P2;PMS_P1;PMS_P2;Temp;Humidity;BMP_temperature;BMP_pressure;BME280_temperature;BME280_humidity;BME280_pressure;Samples;Min_cycle;Max_cycle;Signal;HPM_P1;HPM_P2
2024/02/11 00:01:18;;;;;;;;;;;;;;;0.57;100.00;100047.79;109282;1252;60821;-70
2024/02/11 00:03:45;;;;;;;;;;;;;;;0.57;100.00;100044.23;109224;1253;59787;-71
2024/02/11 00:06:13;;;;;;;;;;;;;;;0.56;100.00;100056.42;109273;1253;74366;-71
2024/02/11 00:08:41;;;;;;;;;;;;;;;0.55;100.00;100058.24;109293;1253;65635;-69
2024/02/11 00:11:12;;;;;;;;;;;;;;;0.53;100.00;100058.58;109273;1253;71481;-69
2024/02/11 00:13:41;;;;;;;;;;;;;;;0.53;100.00;100056.51;109253;1253;60975;-70
2024/02/11 00:16:09;;;;;;;;;;;;;;;0.54;100.00;100052.86;109309;1253;59819;-69
2024/02/11 00:18:37;;;;;;;;;;;;;;;0.53;100.00;100052.94;109305;1253;75573;-69
2024/02/11 00:21:05;;;;;;;;;;;;;;;0.53;100.00;100057.20;109289;1252;67162;-69
2024/02/11 00:23:36;;;;;;;;;;;;;;;0.55;100.00;100058.40;109238;1253;73135;-75
2024/02/11 00:26:06;;;;;;;;;;;;;;;0.55;100.00;100064.23;109209;1254;61677;-69
2024/02/11 00:28:34;;;;;;;;;;;;;;;0.56;100.00;100060.54;109295;1253;59694;-70
2024/02/11 00:31:02;;;;;;;;;;;;;;;0.55;100.00;100056.00;109270;1253;75509;-70
2024/02/11 00:33:32;;;;;;;;;;;;;;;0.55;100.00;100055.65;109269;1253;65960;-70
2024/02/11 00:36:01;;;;;;;;;;;;;;;0.55;100.00;100053.24;109309;1253;71768;-70
2024/02/11 00:38:30;;;;;;;;;;;;;;;0.55;100.00;100042.02;109251;1252;59846;-70
2024/02/11 00:40:58;;;;;;;;;;;;;;;0.56;100.00;100045.34;109273;1253;59928;-69
2024/02/11 00:43:26;;;;;;;;;;;;;;;0.57;100.00;100050.04;109230;1253;74256;-69
2024/02/11 00:45:53;;;;;;;;;;;;;;;0.57;100.00;100045.42;109296;1253;67042;-69
2024/02/11 00:48:22;;;;;;;;;;;;;;;0.56;100.00;100049.04;109247;1252;72694;-69
2024/02/11 00:50:50;;;;;;;;;;;;;;;0.56;100.00;100056.41;109247;1253;59876;-69
2024/02/11 00:53:18;;;;;;;;;;;;;;;0.57;100.00;100058.58;109300;1252;60690;-68
2024/02/11 00:55:45;;;;;;;;;;;;;;;0.57;100.00;100051.58;109220;1253;75635;-70
2024/02/11 00:58:14;;;;;;;;;;;;;;;0.58;100.00;100050.98;109272;1253;67920;-68
2024/02/11 01:00:45;;;;;;;;;;;;;;;0.58;100.00;100056.92;109270;1252;71505;-67
2024/02/11 01:03:13;;;;;;;;;;;;;;;0.58;100.00;100046.23;109229;1253;59750;-67
2024/02/11 01:05:44;;;;;;;;;;;;;;;0.57;100.00;100045.61;109254;1252;59903;-74
2024/02/11 01:08:12;;;;;;;;;;;;;;;0.57;100.00;100051.23;109338;1253;74406;-68
2024/02/11 01:10:39;;;;;;;;;;;;;;;0.57;100.00;100052.41;109296;1252;65685;-68
2024/02/11 01:13:07;;;;;;;;;;;;;;;0.57;100.00;100047.81;109130;1252;71530;-68
2024/02/11 01:15:35;;;;;;;;;;;;;;;0.57;100.00;100057.39;109283;1253;60428;-68
2024/02/11 01:18:03;;;;;;;;;;;;;;;0.56;100.00;100056.39;109219;1253;60259;-70
2024/02/11 01:20:31;;;;;;;;;;;;;;;0.57;100.00;100053.10;109258;1252;75605;-68
2024/02/11 01:23:00;;;;;;;;;;;;;;;0.58;100.00;100049.95;109268;1253;65897;-68
2024/02/11 01:25:28;;;;;;;;;;;;;;;0.58;100.00;100056.48;109207;1253;72955;-68
2024/02/11 01:27:55;;;;;;;;;;;;;;;0.58;100.00;100053.40;109216;1252;60934;-68
2024/02/11 01:30:24;;;;;;;;;;;;;;;0.58;100.00;100056.77;109246;1252;60443;-68
2024/02/11 01:32:57;;;;;;;;;;;;;;;0.60;100.00;100053.52;109338;1252;73431;-68
2024/02/11 01:35:25;;;;;;;;;;;;;;;0.61;100.00;100062.40;109273;1253;65693;-67
2024/02/11 01:37:53;;;;;;;;;;;;;;;0.60;100.00;100066.39;109217;1254;72649;-68
2024/02/11 01:40:21;;;;;;;;;;;;;;;0.60;100.00;100073.05;109259;1253;59733;-66
2024/02/11 01:42:50;;;;;;;;;;;;;;;0.59;100.00;100077.01;109307;1252;60029;-67
2024/02/11 01:45:18;;;;;;;;;;;;;;;0.61;100.00;100072.33;109314;1252;75457;-69
2024/02/11 01:47:45;;;;;;;;;;;;;;;0.62;100.00;100070.70;109355;1253;67045;-74
2024/02/11 01:50:15;;;;;;;;;;;;;;;0.63;100.00;100071.42;109270;1253;72049;-68
2024/02/11 01:52:43;;;;;;;;;;;;;;;0.65;100.00;100073.16;109222;1252;60951;-67
2024/02/11 01:55:12;;;;;;;;;;;;;;;0.65;100.00;100078.45;109262;1253;59810;-68
2024/02/11 01:57:42;;;;;;;;;;;;;;;0.62;100.00;100079.36;109152;1252;74281;-74
2024/02/11 02:00:13;;;;;;;;;;;;;;;0.63;100.00;100077.06;109241;1252;65042;-67
2024/02/11 02:02:41;;;;;;;;;;;;;;;0.64;100.00;100079.02;109134;1254;71774;-69
2024/02/11 02:05:09;;;;;;;;;;;;;;;0.65;100.00;100079.98;109251;1256;60899;-67
2024/02/11 02:07:38;;;;;;;;;;;;;;;0.65;100.00;100076.24;109237;1253;59851;-67
2024/02/11 02:10:06;;;;;;;;;;;;;;;0.63;100.00;100080.09;109221;1252;75424;-67
2024/02/11 02:12:33;;;;;;;;;;;;;;;0.65;100.00;100088.05;109233;1252;66219;-67
2024/02/11 02:15:01;;;;;;;;;;;;;;;0.66;100.00;100085.19;109184;1253;72766;-67
2024/02/11 02:17:29;;;;;;;;;;;;;;;0.67;100.00;100086.81;109160;1252;60961;-67
2024/02/11 02:19:56;;;;;;;;;;;;;;;0.65;100.00;100089.89;109373;1253;59820;-69
2024/02/11 02:22:24;;;;;;;;;;;;;;;0.66;100.00;100088.60;109167;1253;75516;-67
2024/02/11 02:24:51;;;;;;;;;;;;;;;0.65;100.00;100092.27;109196;1253;66948;-67
2024/02/11 02:27:18;;;;;;;;;;;;;;;0.64;100.00;100092.02;109167;1253;72725;-67
2024/02/11 02:29:46;;;;;;;;;;;;;;;0.63;100.00;100094.31;109206;1257;59734;-67
2024/02/11 02:32:13;;;;;;;;;;;;;;;0.64;100.00;100098.54;109178;1252;59743;-66
2024/02/11 02:34:43;;;;;;;;;;;;;;;0.66;100.00;100100.59;109191;1252;74449;-67
2024/02/11 02:37:10;;;;;;;;;;;;;;;0.67;100.00;100102.70;109215;1253;65507;-66
2024/02/11 02:39:38;;;;;;;;;;;;;;;0.66;100.00;100107.48;109214;1253;71441;-66
2024/02/11 02:42:05;;;;;;;;;;;;;;;0.67;100.00;100110.11;109124;1252;60933;-66
2024/02/11 02:44:33;;;;;;;;;;;;;;;0.67;100.00;100105.64;109201;1253;59918;-63
2024/02/11 02:47:00;;;;;;;;;;;;;;;0.66;100.00;100108.41;109210;1253;75512;-64
2024/02/11 02:49:28;;;;;;;;;;;;;;;0.66;100.00;100105.77;109194;1256;65656;-63
2024/02/11 02:51:57;;;;;;;;;;;;;;;0.68;100.00;100107.44;109226;1253;72734;-62
2024/02/11 02:54:25;;;;;;;;;;;;;;;0.66;100.00;100108.46;109112;1253;61232;-63
2024/02/11 02:56:52;;;;;;;;;;;;;;;0.69;100.00;100112.01;109222;1253;59729;-63
2024/02/11 02:59:20;;;;;;;;;;;;;;;0.70;100.00;100106.96;109220;1253;75546;-63
2024/02/11 03:01:47;;;;;;;;;;;;;;;0.70;100.00;100106.58;109238;1253;66809;-63
2024/02/11 03:04:16;;;;;;;;;;;;;;;0.70;100.00;100111.54;109222;1252;72102;-64
2024/02/11 03:06:44;;;;;;;;;;;;;;;0.71;100.00;100108.41;109173;1253;61395;-63
2024/02/11 03:09:11;;;;;;;;;;;;;;;0.69;100.00;100108.34;109205;1252;59896;-64
2024/02/11 03:11:40;;;;;;;;;;;;;;;0.69;100.00;100105.44;109213;1253;75542;-63
2024/02/11 03:14:08;;;;;;;;;;;;;;;0.69;100.00;100105.48;109184;1253;67416;-64
2024/02/11 03:16:36;;;;;;;;;;;;;;;0.68;100.00;100104.17;109150;1253;72775;-64
2024/02/11 03:19:05;;;;;;;;;;;;;;;0.69;100.00;100109.95;109369;1252;60215;-64
2024/02/11 03:21:33;;;;;;;;;;;;;;;0.69;100.00;100108.77;109172;1253;59902;-63
2024/02/11 03:24:04;;;;;;;;;;;;;;;0.67;100.00;100106.15;109180;1253;74258;-64
2024/02/11 03:26:32;;;;;;;;;;;;;;;0.66;100.00;100102.83;109153;1253;67184;-65
2024/02/11 03:29:03;;;;;;;;;;;;;;;0.68;100.00;100108.98;109196;1253;72730;-64
2024/02/11 03:31:30;;;;;;;;;;;;;;;0.68;100.00;100110.48;109171;1253;59756;-64
2024/02/11 03:34:00;;;;;;;;;;;;;;;0.68;100.00;100107.98;109194;1253;59919;-64
2024/02/11 03:36:28;;;;;;;;;;;;;;;0.68;100.00;100107.29;109149;1253;73790;-65
2024/02/11 03:38:56;;;;;;;;;;;;;;;0.67;100.00;100103.55;109170;1252;66986;-65
2024/02/11 03:41:24;;;;;;;;;;;;;;;0.67;100.00;100100.31;109173;1253;73053;-65
2024/02/11 03:43:51;;;;;;;;;;;;;;;0.68;100.00;100105.36;109199;1253;60984;-63
2024/02/11 03:46:21;;;;;;;;;;;;;;;0.68;100.00;100101.98;109139;1253;59895;-65
2024/02/11 03:48:49;;;;;;;;;;;;;;;0.68;100.00;100106.05;109165;1253;75537;-65
2024/02/11 03:51:17;;;;;;;;;;;;;;;0.68;100.00;100113.44;109207;1253;66444;-64
2024/02/11 03:53:45;;;;;;;;;;;;;;;0.68;100.00;100110.84;109172;1253;72766;-64
2024/02/11 03:56:13;;;;;;;;;;;;;;;0.69;100.00;100104.30;109124;1253;60218;-67
2024/02/11 03:58:42;;;;;;;;;;;;;;;0.69;100.00;100101.88;109189;1253;59934;-64
2024/02/11 04:01:09;;;;;;;;;;;;;;;0.70;100.00;100099.36;109197;1253;75705;-64
2024/02/11 04:03:39;;;;;;;;;;;;;;;0.69;100.00;100098.45;109198;1252;66215;-65
2024/02/11 04:06:06;;;;;;;;;;;;;;;0.68;100.00;100098.88;109126;1253;72881;-64
2024/02/11 04:08:37;;;;;;;;;;;;;;;0.67;100.00;100101.52;109147;1253;60248;-64
2024/02/11 04:11:05;;;;;;;;;;;;;;;0.69;100.00;100107.23;109256;1253;60030;-63
2024/02/11 04:13:33;;;;;;;;;;;;;;;0.68;100.00;100108.11;109151;1253;74257;-64
2024/02/11 04:16:08;;;;;;;;;;;;;;;0.69;100.00;100103.80;109195;1253;66834;-68
2024/02/11 04:18:36;;;;;;;;;;;;;;;0.68;100.00;100109.49;109153;1255;72165;-64
2024/02/11 04:21:04;;;;;;;;;;;;;;;0.68;100.00;100110.53;109157;1253;59734;-63
2024/02/11 04:23:35;;;;;;;;;;;;;;;0.69;100.00;100110.12;109213;1253;60179;-64
2024/02/11 04:26:08;;;;;;;;;;;;;;;0.69;100.00;100107.90;109172;1253;76541;-64
2024/02/11 04:28:36;;;;;;;;;;;;;;;0.69;100.00;100109.63;109172;1253;66944;-63
2024/02/11 04:31:09;;;;;;;;;;;;;;;0.68;100.00;100112.07;109204;1253;72793;-65
2024/02/11 04:33:38;;;;;;;;;;;;;;;0.68;100.00;100111.19;109422;1253;60969;-63
2024/02/11 04:36:06;;;;;;;;;;;;;;;0.69;100.00;100116.95;109201;1253;60402;-64
2024/02/11 04:38:34;;;;;;;;;;;;;;;0.69;100.00;100118.52;109174;1253;75602;-64
2024/02/11 04:41:01;;;;;;;;;;;;;;;0.68;100.00;100126.95;109191;1253;66126;-64
2024/02/11 04:43:29;;;;;;;;;;;;;;;0.70;100.00;100132.56;109144;1255;72715;-64
2024/02/11 04:45:56;;;;;;;;;;;;;;;0.70;100.00;100132.59;109198;1253;59717;-67
2024/02/11 04:48:25;;;;;;;;;;;;;;;0.72;100.00;100136.23;109174;1252;59881;-63
2024/02/11 04:50:52;;;;;;;;;;;;;;;0.71;100.00;100134.34;109194;1253;75536;-62
2024/02/11 04:53:20;;;;;;;;;;;;;;;0.72;100.00;100142.00;109432;1253;65634;-63
2024/02/11 04:55:50;;;;;;;;;;;;;;;0.72;100.00;100142.88;109157;1253;71453;-64
2024/02/11 04:58:23;;;;;;;;;;;;;;;0.74;100.00;100145.79;109152;1253;61472;-62
2024/02/11 05:00:54;;;;;;;;;;;;;;;0.72;100.00;100139.73;109188;1253;60175;-63
2024/02/11 05:03:24;;;;;;;;;;;;;;;0.74;100.00;100140.85;109190;1252;74264;-63
2024/02/11 05:05:51;;;;;;;;;;;;;;;0.73;100.00;100140.04;109135;1253;65689;-68
2024/02/11 05:08:22;;;;;;;;;;;;;;;0.75;100.00;100140.96;109193;1253;72932;-65
2024/02/11 05:10:52;;;;;;;;;;;;;;;0.75;100.00;100138.21;109323;1253;60941;-65
2024/02/11 05:13:23;;;;;;;;;;;;;;;0.75;100.00;100142.96;109237;1253;59847;-65
2024/02/11 05:15:53;;;;;;;;;;;;;;;0.77;100.00;100142.83;109172;1253;74228;-68
2024/02/11 05:18:21;;;;;;;;;;;;;;;0.79;100.00;100145.11;109233;1253;67075;-65
2024/02/11 05:20:48;;;;;;;;;;;;;;;0.77;100.00;100140.48;109159;1253;72372;-64
2024/02/11 05:23:16;;;;;;;;;;;;;;;0.76;100.00;100138.83;109134;1256;59734;-65
2024/02/11 05:25:45;;;;;;;;;;;;;;;0.77;100.00;100140.32;109161;1253;60184;-65
2024/02/11 05:28:14;;;;;;;;;;;;;;;0.76;100.00;100146.17;109164;1253;76012;-65
2024/02/11 05:30:45;;;;;;;;;;;;;;;0.75;100.00;100141.45;109300;1253;65983;-66
2024/02/11 05:33:18;;;;;;;;;;;;;;;0.76;100.00;100147.91;109196;1252;72788;-65
2024/02/11 05:35:48;;;;;;;;;;;;;;;0.76;100.00;100142.05;109154;1253;59769;-68
2024/02/11 05:38:19;;;;;;;;;;;;;;;0.77;100.00;100137.36;109223;1258;59974;-65
2024/02/11 05:40:50;;;;;;;;;;;;;;;0.77;100.00;100140.27;109207;1253;75635;-65
2024/02/11 05:43:19;;;;;;;;;;;;;;;0.78;100.00;100142.55;109222;1253;65736;-65
2024/02/11 05:45:47;;;;;;;;;;;;;;;0.78;100.00;100144.51;109166;1253;72720;-66
2024/02/11 05:48:14;;;;;;;;;;;;;;;0.77;100.00;100152.39;109384;1253;61416;-65
2024/02/11 05:50:44;;;;;;;;;;;;;;;0.78;100.00;100159.52;109188;1254;59942;-65
2024/02/11 05:53:12;;;;;;;;;;;;;;;0.79;100.00;100161.83;109199;1253;74261;-65
2024/02/11 05:55:40;;;;;;;;;;;;;;;0.80;100.00;100164.33;109231;1253;67110;-64
2024/02/11 05:58:07;;;;;;;;;;;;;;;0.80;100.00;100162.25;109152;1258;72708;-69
2024/02/11 06:00:36;;;;;;;;;;;;;;;0.82;100.00;100159.23;109201;1253;59779;-64
2024/02/11 06:03:04;;;;;;;;;;;;;;;0.83;100.00;100162.67;109216;1253;60257;-64
2024/02/11 06:05:32;;;;;;;;;;;;;;;0.84;100.00;100169.48;109117;1253;75932;-65
2024/02/11 06:08:00;;;;;;;;;;;;;;;0.82;100.00;100171.63;109311;1253;66378;-64
2024/02/11 06:10:30;;;;;;;;;;;;;;;0.83;100.00;100169.73;109287;1253;73292;-65
2024/02/11 06:12:58;;;;;;;;;;;;;;;0.83;100.00;100169.71;109259;1253;60926;-65
2024/02/11 06:15:27;;;;;;;;;;;;;;;0.84;100.00;100166.59;109293;1253;59803;-64
2024/02/11 06:18:01;;;;;;;;;;;;;;;0.86;100.00;100174.30;109324;1253;75588;-64
2024/02/11 06:20:29;;;;;;;;;;;;;;;0.87;100.00;100181.71;109117;1254;65649;-66
2024/02/11 06:22:57;;;;;;;;;;;;;;;0.88;100.00;100184.58;109327;1254;72337;-64
2024/02/11 06:25:25;;;;;;;;;;;;;;;0.88;100.00;100186.59;109302;1254;60855;-64
2024/02/11 06:27:53;;;;;;;;;;;;;;;0.85;100.00;100186.97;109300;1254;59927;-63
2024/02/11 06:30:21;;;;;;;;;;;;;;;0.86;100.00;100186.73;109324;1254;75736;-63
2024/02/11 06:32:55;;;;;;;;;;;;;;;0.87;100.00;100189.56;109152;1258;65671;-64
2024/02/11 06:35:24;;;;;;;;;;;;;;;0.88;100.00;100186.11;109278;1254;72753;-63
2024/02/11 06:37:52;;;;;;;;;;;;;;;0.87;100.00;100182.23;109192;1253;59944;-63
2024/02/11 06:40:25;;;;;;;;;;;;;;;0.88;100.00;100178.60;109310;1252;59716;-63
2024/02/11 06:42:54;;;;;;;;;;;;;;;0.89;100.00;100187.48;109136;1254;75565;-64
2024/02/11 06:45:22;;;;;;;;;;;;;;;0.90;100.00;100195.47;109211;1253;67131;-63
2024/02/11 06:47:51;;;;;;;;;;;;;;;0.92;100.00;100195.36;109306;1254;72703;-64
2024/02/11 06:50:19;;;;;;;;;;;;;;;0.94;100.00;100194.98;109316;1253;59711;-64
2024/02/11 06:52:50;;;;;;;;;;;;;;;0.94;100.00;100196.50;109237;1253;59803;-70
2024/02/11 06:55:19;;;;;;;;;;;;;;;0.95;100.00;100198.52;109199;1254;75911;-66
2024/02/11 06:57:48;;;;;;;;;;;;;;;0.98;100.00;100205.83;109322;1253;66919;-64
2024/02/11 07:00:18;;;;;;;;;;;;;;;0.97;100.00;100202.46;109303;1254;73151;-65
2024/02/11 07:02:47;;;;;;;;;;;;;;;0.98;100.00;100207.68;109276;1253;59903;-65
2024/02/11 07:05:15;;;;;;;;;;;;;;;1.00;100.00;100207.67;109193;1253;59865;-66
2024/02/11 07:07:44;;;;;;;;;;;;;;;1.03;100.00;100207.46;109271;1254;74208;-67
2024/02/11 07:10:13;;;;;;;;;;;;;;;1.04;100.00;100212.15;109303;1253;65928;-67
2024/02/11 07:12:44;;;;;;;;;;;;;;;1.05;100.00;100210.55;109281;1254;72721;-67
2024/02/11 07:15:13;;;;;;;;;;;;;;;1.06;100.00;100215.79;109209;1253;59841;-66
2024/02/11 07:17:42;;;;;;;;;;;;;;;1.08;100.00;100221.95;109280;1253;60050;-68
2024/02/11 07:20:14;;;;;;;;;;;;;;;1.09;100.00;100228.88;109269;1253;75432;-69
2024/02/11 07:22:44;;;;;;;;;;;;;;;1.10;100.00;100226.38;109109;1253;65577;-67
2024/02/11 07:25:16;;;;;;;;;;;;;;;1.11;100.00;100223.88;109105;1258;72791;-67
2024/02/11 07:27:45;;;;;;;;;;;;;;;1.11;100.00;100232.85;109302;1252;59800;-67
2024/02/11 07:30:13;;;;;;;;;;;;;;;1.12;100.00;100237.69;109271;1253;60145;-66
2024/02/11 07:32:42;;;;;;;;;;;;;;;1.15;100.00;100236.77;109288;1254;74173;-66
2024/02/11 07:35:12;;;;;;;;;;;;;;;1.16;100.00;100237.05;109313;1254;65943;-68
2024/02/11 07:37:41;;;;;;;;;;;;;;;1.15;100.00;100232.29;109264;1253;72700;-67
2024/02/11 07:40:14;;;;;;;;;;;;;;;1.17;100.00;100238.30;109163;1254;60224;-66
2024/02/11 07:42:43;;;;;;;;;;;;;;;1.20;100.00;100238.27;109211;1253;60238;-66
2024/02/11 07:45:14;;;;;;;;;;;;;;;1.21;100.00;100236.46;109284;1253;75577;-67
2024/02/11 07:47:47;;;;;;;;;;;;;;;1.22;100.00;100244.08;109223;1254;66857;-68
2024/02/11 07:50:17;;;;;;;;;;;;;;;1.24;100.00;100243.77;109270;1254;71782;-67
2024/02/11 07:52:46;;;;;;;;;;;;;;;1.26;100.00;100247.73;109278;1253;59864;-68
2024/02/11 07:55:15;;;;;;;;;;;;;;;1.28;100.00;100244.11;109240;1253;60292;-67
2024/02/11 07:57:43;;;;;;;;;;;;;;;1.32;100.00;100245.57;109316;1254;75532;-68
2024/02/11 08:00:15;;;;;;;;;;;;;;;1.33;100.00;100246.33;109245;1253;67798;-67
2024/02/11 08:02:43;;;;;;;;;;;;;;;1.35;100.00;100243.76;109276;1253;72739;-68
2024/02/11 08:05:12;;;;;;;;;;;;;;;1.37;100.00;100242.26;109241;1253;63054;-67
2024/02/11 08:07:39;;;;;;;;;;;;;;;1.38;100.00;100243.45;109250;1253;59759;-67
2024/02/11 08:10:07;;;;;;;;;;;;;;;1.41;100.00;100234.23;109339;1253;75596;-70
2024/02/11 08:12:35;;;;;;;;;;;;;;;1.43;100.00;100238.14;109307;1253;65909;-68
2024/02/11 08:15:02;;;;;;;;;;;;;;;1.43;100.00;100236.89;109267;1254;71404;-69
2024/02/11 08:17:30;;;;;;;;;;;;;;;1.42;100.00;100233.20;109301;1253;59927;-68
2024/02/11 08:19:58;;;;;;;;;;;;;;;1.43;100.00;100239.16;109281;1254;59724;-69
2024/02/11 08:22:25;;;;;;;;;;;;;;;1.43;100.00;100240.01;109197;1253;75513;-68
2024/02/11 08:24:53;;;;;;;;;;;;;;;1.42;100.00;100246.11;109348;1254;67492;-69
2024/02/11 08:27:20;;;;;;;;;;;;;;;1.43;100.00;100236.77;109285;1253;71441;-69
2024/02/11 08:29:51;;;;;;;;;;;;;;;1.44;100.00;100229.48;109283;1254;59798;-69
2024/02/11 08:32:19;;;;;;;;;;;;;;;1.44;100.00;100235.16;109271;1253;60069;-70
2024/02/11 08:34:48;;;;;;;;;;;;;;;1.44;100.00;100232.70;109288;1253;75546;-70
2024/02/11 08:37:15;;;;;;;;;;;;;;;1.45;100.00;100235.08;109286;1254;64519;-70
2024/02/11 08:39:43;;;;;;;;;;;;;;;1.46;100.00;100239.90;109236;1253;72798;-70
2024/02/11 08:42:10;;;;;;;;;;;;;;;1.48;100.00;100248.38;109187;1254;59743;-70
2024/02/11 08:44:38;;;;;;;;;;;;;;;1.51;100.00;100256.88;109181;1253;60210;-67
2024/02/11 08:47:08;;;;;;;;;;;;;;;1.54;100.00;100261.77;109375;1253;75615;-68
2024/02/11 08:49:36;;;;;;;;;;;;;;;1.55;100.00;100264.54;109349;1253;65984;-67
2024/02/11 08:52:04;;;;;;;;;;;;;;;1.56;100.00;100263.11;109309;1254;72768;-67
2024/02/11 08:54:34;;;;;;;;;;;;;;;1.57;100.00;100262.99;109236;1253;59778;-67
2024/02/11 08:57:02;;;;;;;;;;;;;;;1.59;100.00;100264.55;109307;1253;60362;-68
2024/02/11 08:59:30;;;;;;;;;;;;;;;1.62;100.00;100260.04;109326;1253;75551;-69
2024/02/11 09:01:58;;;;;;;;;;;;;;;1.63;100.00;100258.73;109319;1253;66165;-69
2024/02/11 09:04:27;;;;;;;;;;;;;;;1.64;100.00;100255.41;109208;1254;70731;-71
2024/02/11 09:06:55;;;;;;;;;;;;;;;1.68;100.00;100254.23;109262;1254;60942;-68
2024/02/11 09:09:26;;;;;;;;;;;;;;;1.71;100.00;100256.88;109283;1253;59730;-68
2024/02/11 09:11:54;;;;;;;;;;;;;;;1.78;100.00;100253.95;109253;1253;75529;-68
2024/02/11 09:14:24;;;;;;;;;;;;;;;1.80;100.00;100255.34;109321;1253;65729;-70
2024/02/11 09:16:56;;;;;;;;;;;;;;;1.81;100.00;100258.50;109228;1253;72106;-69
2024/02/11 09:19:27;;;;;;;;;;;;;;;1.82;100.00;100256.53;109301;1254;60169;-69
2024/02/11 09:21:55;;;;;;;;;;;;;;;1.85;100.00;100253.55;109291;1253;60266;-68
2024/02/11 09:24:24;;;;;;;;;;;;;;;1.87;100.00;100246.54;109328;1253;78026;-68
2024/02/11 09:26:51;;;;;;;;;;;;;;;1.89;100.00;100250.10;109241;1253;66063;-67
2024/02/11 09:29:22;;;;;;;;;;;;;;;1.89;100.00;100251.95;109111;1253;72004;-67
2024/02/11 09:31:50;;;;;;;;;;;;;;;1.87;100.00;100254.36;109249;1255;59790;-67
2024/02/11 09:34:17;;;;;;;;;;;;;;;1.87;100.00;100253.20;109321;1252;60129;-68
2024/02/11 09:36:45;;;;;;;;;;;;;;;1.86;100.00;100245.56;109274;1253;75438;-71
2024/02/11 09:39:13;;;;;;;;;;;;;;;1.86;100.00;100242.52;109304;1253;67447;-67
2024/02/11 09:41:40;;;;;;;;;;;;;;;1.86;100.00;100232.19;109276;1254;72751;-68
2024/02/11 09:44:08;;;;;;;;;;;;;;;1.85;100.00;100224.92;109305;1253;59771;-68
2024/02/11 09:46:35;;;;;;;;;;;;;;;1.83;100.00;100226.09;109184;1253;59982;-72
2024/02/11 09:49:06;;;;;;;;;;;;;;;1.83;100.00;100232.33;109229;1253;77682;-69
2024/02/11 09:51:34;;;;;;;;;;;;;;;1.81;100.00;100237.73;109294;1253;66249;-69
2024/02/11 09:54:02;;;;;;;;;;;;;;;1.79;100.00;100233.27;109239;1255;72494;-69
2024/02/11 09:56:30;;;;;;;;;;;;;;;1.78;100.00;100229.26;109263;1254;60693;-74
2024/02/11 09:58:57;;;;;;;;;;;;;;;1.77;100.00;100227.64;109279;1253;60754;-72
2024/02/11 10:01:25;;;;;;;;;;;;;;;1.80;100.00;100228.77;109265;1252;78082;-72
2024/02/11 10:03:57;;;;;;;;;;;;;;;1.80;100.00;100226.06;109286;1253;65777;-72
2024/02/11 10:06:32;;;;;;;;;;;;;;;1.79;100.00;100226.94;109182;1253;71457;-71
2024/02/11 10:09:04;;;;;;;;;;;;;;;1.82;100.00;100231.02;109238;1254;60200;-70
2024/02/11 10:11:32;;;;;;;;;;;;;;;1.82;100.00;100229.30;109279;1252;60127;-69
2024/02/11 10:14:00;;;;;;;;;;;;;;;1.83;100.00;100230.75;109284;1252;75495;-66
2024/02/11 10:16:29;;;;;;;;;;;;;;;1.85;100.00;100223.38;109259;1254;67287;-67
2024/02/11 10:18:59;;;;;;;;;;;;;;;1.86;100.00;100222.23;109224;1253;74154;-68
2024/02/11 10:21:27;;;;;;;;;;;;;;;1.88;100.00;100219.02;109283;1253;63012;-69
2024/02/11 10:23:55;;;;;;;;;;;;;;;1.88;100.00;100217.61;109295;1253;61805;-69
2024/02/11 10:26:22;;;;;;;;;;;;;;;1.89;100.00;100211.36;109280;1253;75604;-69
2024/02/11 10:28:51;;;;;;;;;;;;;;;1.90;100.00;100213.53;109335;1252;66951;-69
2024/02/11 10:31:19;;;;;;;;;;;;;;;1.92;100.00;100215.77;109268;1252;75324;-70
2024/02/11 10:33:47;;;;;;;;;;;;;;;1.93;100.00;100220.79;109274;1254;59826;-70
2024/02/11 10:36:14;;;;;;;;;;;;;;;1.94;100.00;100225.55;109279;1252;59884;-71
2024/02/11 10:38:42;;;;;;;;;;;;;;;1.97;100.00;100229.78;109358;1253;75541;-70
2024/02/11 10:41:09;;;;;;;;;;;;;;;2.00;100.00;100234.95;109225;1253;66979;-70
2024/02/11 10:43:38;;;;;;;;;;;;;;;2.02;100.00;100227.91;109366;1253;72731;-71
2024/02/11 10:46:07;;;;;;;;;;;;;;;2.04;100.00;100224.52;109297;1252;64268;-72
2024/02/11 10:48:34;;;;;;;;;;;;;;;2.06;100.00;100224.38;109319;1253;63209;-73
2024/02/11 10:51:17;;;;;;;;;;;;;;;2.09;100.00;100226.64;109230;1253;75824;-72
2024/02/11 10:53:45;;;;;;;;;;;;;;;2.12;100.00;100218.50;109260;1252;65923;-72
2024/02/11 10:56:14;;;;;;;;;;;;;;;2.14;100.00;100217.48;109270;1252;73313;-71
2024/02/11 10:58:44;;;;;;;;;;;;;;;2.17;100.00;100209.73;109274;1254;60986;-80
2024/02/11 11:01:15;;;;;;;;;;;;;;;2.18;100.00;100200.83;109305;1253;59802;-70
2024/02/11 11:03:45;;;;;;;;;;;;;;;2.19;100.00;100193.28;109361;1253;75950;-71
2024/02/11 11:06:13;;;;;;;;;;;;;;;2.16;100.00;100188.38;109322;1253;67600;-73
2024/02/11 11:08:41;;;;;;;;;;;;;;;2.14;100.00;100191.12;109290;1253;72746;-79
2024/02/11 11:11:08;;;;;;;;;;;;;;;2.10;100.00;100188.67;109230;1254;61349;-73
2024/02/11 11:13:37;;;;;;;;;;;;;;;2.09;100.00;100196.19;109422;1252;60056;-72
2024/02/11 11:16:05;;;;;;;;;;;;;;;2.08;100.00;100197.94;109314;1254;75113;-72
2024/02/11 11:18:38;;;;;;;;;;;;;;;2.07;100.00;100196.31;109286;1253;68047;-72
2024/02/11 11:21:07;;;;;;;;;;;;;;;2.06;100.00;100204.98;109480;1253;72940;-71
2024/02/11 11:23:37;;;;;;;;;;;;;;;2.07;100.00;100212.09;109099;1252;287913;-71
2024/02/11 11:26:10;;;;;;;;;;;;;;;2.08;100.00;100217.14;109288;1252;61167;-72
2024/02/11 11:28:39;;;;;;;;;;;;;;;2.09;100.00;100215.04;109272;1253;73828;-72
2024/02/11 11:31:06;;;;;;;;;;;;;;;2.13;100.00;100206.98;109354;1253;65742;-73
2024/02/11 11:33:37;;;;;;;;;;;;;;;2.14;100.00;100209.39;109277;1252;71577;-73
2024/02/11 11:36:05;;;;;;;;;;;;;;;2.15;100.00;100207.28;109317;1252;59755;-72
2024/02/11 11:38:33;;;;;;;;;;;;;;;2.14;100.00;100205.33;109298;1253;59789;-73
2024/02/11 11:41:02;;;;;;;;;;;;;;;2.13;100.00;100207.17;109274;1253;75404;-74
2024/02/11 11:43:32;;;;;;;;;;;;;;;2.11;100.00;100210.34;109348;1252;68330;-76
2024/02/11 11:46:03;;;;;;;;;;;;;;;2.12;100.00;100219.07;109289;1252;73211;-76
2024/02/11 11:48:35;;;;;;;;;;;;;;;2.12;100.00;100226.92;109197;1252;62150;-77
2024/02/11 11:51:07;;;;;;;;;;;;;;;2.13;100.00;100222.71;109314;1254;59723;-77
2024/02/11 11:53:35;;;;;;;;;;;;;;;2.16;100.00;100228.32;109321;1253;75141;-78
2024/02/11 11:56:03;;;;;;;;;;;;;;;2.18;100.00;100225.92;109319;1253;65840;-78
2024/02/11 11:58:31;;;;;;;;;;;;;;;2.21;100.00;100216.44;109269;1253;76189;-77
2024/02/11 12:01:02;;;;;;;;;;;;;;;2.24;100.00;100220.15;109290;1253;60463;-77
2024/02/11 12:03:30;;;;;;;;;;;;;;;2.25;100.00;100222.41;109260;1253;59677;-77
2024/02/11 12:05:58;;;;;;;;;;;;;;;2.28;100.00;100223.88;109338;1252;74229;-77
2024/02/11 12:08:26;;;;;;;;;;;;;;;2.28;100.00;100223.02;109279;1253;67675;-77
2024/02/11 12:10:58;;;;;;;;;;;;;;;2.26;100.00;100215.60;109325;1252;73082;-77
2024/02/11 12:13:26;;;;;;;;;;;;;;;2.23;100.00;100217.25;109302;1253;60917;-77
2024/02/11 12:15:53;;;;;;;;;;;;;;;2.23;100.00;100220.70;109273;1252;60032;-76
2024/02/11 12:18:21;;;;;;;;;;;;;;;2.22;100.00;100214.95;109274;1253;75483;-77
2024/02/11 12:20:49;;;;;;;;;;;;;;;2.22;100.00;100222.17;109305;1252;67647;-77
2024/02/11 12:23:17;;;;;;;;;;;;;;;2.22;100.00;100217.54;109296;1252;72688;-77
2024/02/11 12:25:50;;;;;;;;;;;;;;;2.20;100.00;100221.60;109324;1253;60309;-77
2024/02/11 12:28:22;;;;;;;;;;;;;;;2.22;100.00;100222.88;109332;1253;61790;-77
2024/02/11 12:30:50;;;;;;;;;;;;;;;2.23;100.00;100220.20;109272;1253;75507;-77
2024/02/11 12:33:18;;;;;;;;;;;;;;;2.24;100.00;100215.16;109458;1252;67498;-77